sensor_id;sensor_type;location;lat;lon;timestamp;P1;durP1;ratioP1;P2;durP2;ratioP2
65182;SDS011;51771;51.068;-1.780;2023-04-29T00:00:25;3.97;;;1.50;;
65182;SDS011;51771;51.068;-1.780;2023-04-29T00:02:51;2.63;;;0.90;;
65182;SDS011;51771;51.068;-1.780;2023-04-29T00:05:16;4.15;;;1.60;;
65182;SDS011;51771;51.068;-1.780;2023-04-29T00:07:42;6.00;;;1.92;;
65182;SDS011;51771;51.068;-1.780;2023-04-29T00:10:07;2.38;;;1.00;;
65182;SDS011;51771;51.068;-1.780;2023-04-29T00:12:32;3.88;;;1.30;;
65182;SDS011;51771;51.068;-1.780;2023-04-29T00:14:58;3.40;;;1.20;;
65182;SDS011;51771;51.068;-1.780;2023-04-29T00:17:24;3.20;;;1.08;;
65182;SDS011;51771;51.068;-1.780;2023-04-29T00:19:49;3.85;;;1.45;;
65182;SDS011;51771;51.068;-1.780;2023-04-29T00:22:15;3.83;;;1.20;;
65182;SDS011;51771;51.068;-1.780;2023-04-29T00:24:40;2.90;;;1.10;;
65182;SDS011;51771;51.068;-1.780;2023-04-29T00:27:05;4.22;;;1.83;;
65182;SDS011;51771;51.068;-1.780;2023-04-29T00:29:31;5.03;;;1.55;;
65182;SDS011;51771;51.068;-1.780;2023-04-29T00:31:56;4.80;;;1.63;;
65182;SDS011;51771;51.068;-1.780;2023-04-29T00:34:21;3.30;;;1.25;;
65182;SDS011;51771;51.068;-1.780;2023-04-29T00:36:46;2.90;;;1.20;;
65182;SDS011;51771;51.068;-1.780;2023-04-29T00:39:12;4.33;;;1.23;;
65182;SDS011;51771;51.068;-1.780;2023-04-29T00:41:37;3.13;;;1.23;;
65182;SDS011;51771;51.068;-1.780;2023-04-29T00:44:03;3.85;;;1.23;;
65182;SDS011;51771;51.068;-1.780;2023-04-29T00:46:28;5.47;;;1.70;;
65182;SDS011;51771;51.068;-1.780;2023-04-29T00:48:53;3.20;;;1.30;;
65182;SDS011;51771;51.068;-1.780;2023-04-29T00:51:18;4.18;;;1.67;;
65182;SDS011;51771;51.068;-1.780;2023-04-29T00:53:44;3.92;;;1.40;;
65182;SDS011;51771;51.068;-1.780;2023-04-29T00:56:09;3.67;;;1.50;;
65182;SDS011;51771;51.068;-1.780;2023-04-29T00:58:35;5.75;;;1.50;;
65182;SDS011;51771;51.068;-1.780;2023-04-29T01:01:00;3.92;;;1.50;;
65182;SDS011;51771;51.068;-1.780;2023-04-29T01:03:29;4.35;;;1.92;;
65182;SDS011;51771;51.068;-1.780;2023-04-29T01:06:19;4.55;;;2.05;;
65182;SDS011;51771;51.068;-1.780;2023-04-29T01:11:16;5.25;;;1.90;;
65182;SDS011;51771;51.068;-1.780;2023-04-29T01:13:50;2.72;;;1.35;;
65182;SDS011;51771;51.068;-1.780;2023-04-29T01:16:24;2.55;;;1.20;;
65182;SDS011;51771;51.068;-1.780;2023-04-29T01:18:54;4.15;;;1.90;;
65182;SDS011;51771;51.068;-1.780;2023-04-29T01:21:20;4.38;;;1.45;;
65182;SDS011;51771;51.068;-1.780;2023-04-29T01:23:46;4.20;;;1.67;;
65182;SDS011;51771;51.068;-1.780;2023-04-29T01:26:11;3.88;;;1.58;;
65182;SDS011;51771;51.068;-1.780;2023-04-29T01:31:35;4.72;;;1.70;;
65182;SDS011;51771;51.068;-1.780;2023-04-29T01:37:04;2.92;;;1.15;;
65182;SDS011;51771;51.068;-1.780;2023-04-29T01:44:26;3.70;;;1.38;;
65182;SDS011;51771;51.068;-1.780;2023-04-29T01:46:52;3.30;;;1.15;;
65182;SDS011;51771;51.068;-1.780;2023-04-29T01:49:25;3.58;;;1.00;;
65182;SDS011;51771;51.068;-1.780;2023-04-29T01:51:50;2.95;;;1.33;;
65182;SDS011;51771;51.068;-1.780;2023-04-29T01:54:16;2.85;;;1.30;;
65182;SDS011;51771;51.068;-1.780;2023-04-29T01:56:41;3.67;;;1.55;;
65182;SDS011;51771;51.068;-1.780;2023-04-29T01:59:06;3.17;;;1.13;;
65182;SDS011;51771;51.068;-1.780;2023-04-29T02:01:32;3.35;;;1.48;;
65182;SDS011;51771;51.068;-1.780;2023-04-29T02:03:57;2.58;;;0.98;;
65182;SDS011;51771;51.068;-1.780;2023-04-29T02:06:23;5.40;;;1.52;;
65182;SDS011;51771;51.068;-1.780;2023-04-29T02:08:48;2.58;;;1.25;;
65182;SDS011;51771;51.068;-1.780;2023-04-29T02:11:14;3.97;;;1.30;;
65182;SDS011;51771;51.068;-1.780;2023-04-29T02:13:39;4.40;;;1.60;;
65182;SDS011;51771;51.068;-1.780;2023-04-29T02:16:11;3.67;;;1.38;;
65182;SDS011;51771;51.068;-1.780;2023-04-29T02:18:36;4.28;;;1.83;;
65182;SDS011;51771;51.068;-1.780;2023-04-29T02:21:02;3.95;;;1.20;;
65182;SDS011;51771;51.068;-1.780;2023-04-29T02:23:27;3.92;;;1.60;;
65182;SDS011;51771;51.068;-1.780;2023-04-29T02:25:53;4.68;;;2.03;;
65182;SDS011;51771;51.068;-1.780;2023-04-29T02:28:18;3.67;;;1.58;;
65182;SDS011;51771;51.068;-1.780;2023-04-29T02:30:44;3.10;;;1.38;;
65182;SDS011;51771;51.068;-1.780;2023-04-29T02:33:09;3.72;;;1.48;;
65182;SDS011;51771;51.068;-1.780;2023-04-29T02:35:34;5.32;;;1.75;;
65182;SDS011;51771;51.068;-1.780;2023-04-29T02:38:00;4.78;;;1.75;;
65182;SDS011;51771;51.068;-1.780;2023-04-29T02:40:25;4.32;;;1.83;;
65182;SDS011;51771;51.068;-1.780;2023-04-29T02:42:51;4.18;;;1.88;;
65182;SDS011;51771;51.068;-1.780;2023-04-29T02:45:16;5.27;;;2.10;;
65182;SDS011;51771;51.068;-1.780;2023-04-29T02:47:41;4.63;;;1.67;;
65182;SDS011;51771;51.068;-1.780;2023-04-29T02:50:06;6.78;;;2.20;;
65182;SDS011;51771;51.068;-1.780;2023-04-29T02:52:32;4.18;;;1.90;;
65182;SDS011;51771;51.068;-1.780;2023-04-29T02:54:57;5.17;;;2.20;;
65182;SDS011;51771;51.068;-1.780;2023-04-29T02:57:22;4.07;;;1.77;;
65182;SDS011;51771;51.068;-1.780;2023-04-29T02:59:47;3.73;;;1.67;;
65182;SDS011;51771;51.068;-1.780;2023-04-29T03:02:13;4.28;;;1.98;;
65182;SDS011;51771;51.068;-1.780;2023-04-29T03:04:38;3.95;;;1.60;;
65182;SDS011;51771;51.068;-1.780;2023-04-29T03:07:04;5.30;;;1.33;;
65182;SDS011;51771;51.068;-1.780;2023-04-29T03:09:29;4.13;;;2.05;;
65182;SDS011;51771;51.068;-1.780;2023-04-29T03:11:54;2.63;;;1.33;;
65182;SDS011;51771;51.068;-1.780;2023-04-29T03:14:20;5.90;;;1.77;;
65182;SDS011;51771;51.068;-1.780;2023-04-29T03:16:45;3.97;;;1.83;;
65182;SDS011;51771;51.068;-1.780;2023-04-29T03:19:10;3.22;;;1.10;;
65182;SDS011;51771;51.068;-1.780;2023-04-29T03:21:36;3.22;;;1.25;;
65182;SDS011;51771;51.068;-1.780;2023-04-29T03:24:01;3.92;;;1.60;;
65182;SDS011;51771;51.068;-1.780;2023-04-29T03:26:26;4.88;;;1.50;;
65182;SDS011;51771;51.068;-1.780;2023-04-29T03:28:51;4.82;;;1.60;;
65182;SDS011;51771;51.068;-1.780;2023-04-29T03:31:17;4.00;;;1.45;;
65182;SDS011;51771;51.068;-1.780;2023-04-29T03:33:44;4.95;;;1.60;;
65182;SDS011;51771;51.068;-1.780;2023-04-29T03:36:10;5.43;;;2.03;;
65182;SDS011;51771;51.068;-1.780;2023-04-29T03:38:35;3.13;;;1.30;;
65182;SDS011;51771;51.068;-1.780;2023-04-29T03:41:00;4.70;;;1.53;;
65182;SDS011;51771;51.068;-1.780;2023-04-29T03:43:26;2.67;;;1.20;;
65182;SDS011;51771;51.068;-1.780;2023-04-29T03:45:51;3.42;;;1.33;;
65182;SDS011;51771;51.068;-1.780;2023-04-29T03:48:17;3.88;;;1.48;;
65182;SDS011;51771;51.068;-1.780;2023-04-29T03:50:42;5.90;;;2.25;;
65182;SDS011;51771;51.068;-1.780;2023-04-29T03:53:07;5.20;;;1.90;;
65182;SDS011;51771;51.068;-1.780;2023-04-29T03:55:33;4.43;;;1.75;;
65182;SDS011;51771;51.068;-1.780;2023-04-29T03:57:58;6.35;;;2.17;;
65182;SDS011;51771;51.068;-1.780;2023-04-29T04:00:23;4.87;;;1.90;;
65182;SDS011;51771;51.068;-1.780;2023-04-29T04:02:50;4.68;;;1.98;;
65182;SDS011;51771;51.068;-1.780;2023-04-29T04:05:15;5.72;;;2.25;;
65182;SDS011;51771;51.068;-1.780;2023-04-29T04:07:43;3.28;;;1.38;;
65182;SDS011;51771;51.068;-1.780;2023-04-29T04:10:08;5.32;;;2.10;;
65182;SDS011;51771;51.068;-1.780;2023-04-29T04:12:34;3.75;;;1.45;;
65182;SDS011;51771;51.068;-1.780;2023-04-29T04:14:59;7.17;;;2.07;;
65182;SDS011;51771;51.068;-1.780;2023-04-29T04:17:24;4.75;;;2.08;;
65182;SDS011;51771;51.068;-1.780;2023-04-29T04:19:49;7.00;;;2.43;;
65182;SDS011;51771;51.068;-1.780;2023-04-29T04:22:15;5.15;;;1.83;;
65182;SDS011;51771;51.068;-1.780;2023-04-29T04:24:41;5.75;;;2.03;;
65182;SDS011;51771;51.068;-1.780;2023-04-29T04:27:06;5.10;;;1.92;;
65182;SDS011;51771;51.068;-1.780;2023-04-29T04:29:31;4.93;;;1.90;;
65182;SDS011;51771;51.068;-1.780;2023-04-29T04:31:56;4.43;;;2.03;;
65182;SDS011;51771;51.068;-1.780;2023-04-29T04:34:22;6.33;;;2.60;;
65182;SDS011;51771;51.068;-1.780;2023-04-29T04:36:47;3.93;;;1.57;;
65182;SDS011;51771;51.068;-1.780;2023-04-29T04:39:12;3.97;;;1.77;;
65182;SDS011;51771;51.068;-1.780;2023-04-29T04:41:37;5.00;;;1.93;;
65182;SDS011;51771;51.068;-1.780;2023-04-29T04:44:03;3.75;;;1.75;;
65182;SDS011;51771;51.068;-1.780;2023-04-29T04:46:28;4.65;;;1.88;;
65182;SDS011;51771;51.068;-1.780;2023-04-29T04:48:53;4.23;;;1.27;;
65182;SDS011;51771;51.068;-1.780;2023-04-29T04:51:19;5.43;;;2.33;;
65182;SDS011;51771;51.068;-1.780;2023-04-29T04:53:45;3.50;;;1.63;;
65182;SDS011;51771;51.068;-1.780;2023-04-29T04:56:10;3.17;;;1.30;;
65182;SDS011;51771;51.068;-1.780;2023-04-29T04:58:35;4.70;;;1.67;;
65182;SDS011;51771;51.068;-1.780;2023-04-29T05:01:00;6.27;;;2.93;;
65182;SDS011;51771;51.068;-1.780;2023-04-29T05:03:26;4.32;;;2.00;;
65182;SDS011;51771;51.068;-1.780;2023-04-29T05:05:54;3.92;;;2.08;;
65182;SDS011;51771;51.068;-1.780;2023-04-29T05:08:20;3.22;;;1.45;;
65182;SDS011;51771;51.068;-1.780;2023-04-29T05:10:45;3.88;;;1.55;;
65182;SDS011;51771;51.068;-1.780;2023-04-29T05:13:10;5.07;;;1.87;;
65182;SDS011;51771;51.068;-1.780;2023-04-29T05:15:35;4.77;;;1.80;;
65182;SDS011;51771;51.068;-1.780;2023-04-29T05:18:01;3.03;;;1.37;;
65182;SDS011;51771;51.068;-1.780;2023-04-29T05:20:26;4.10;;;1.57;;
65182;SDS011;51771;51.068;-1.780;2023-04-29T05:22:51;4.22;;;1.90;;
65182;SDS011;51771;51.068;-1.780;2023-04-29T05:25:16;4.80;;;1.50;;
65182;SDS011;51771;51.068;-1.780;2023-04-29T05:27:42;2.80;;;1.10;;
65182;SDS011;51771;51.068;-1.780;2023-04-29T05:30:07;6.13;;;1.57;;
65182;SDS011;51771;51.068;-1.780;2023-04-29T05:32:33;6.13;;;2.00;;
65182;SDS011;51771;51.068;-1.780;2023-04-29T05:34:58;4.63;;;2.20;;
65182;SDS011;51771;51.068;-1.780;2023-04-29T05:37:23;3.60;;;1.50;;
65182;SDS011;51771;51.068;-1.780;2023-04-29T05:39:51;2.90;;;1.42;;
65182;SDS011;51771;51.068;-1.780;2023-04-29T05:42:16;3.42;;;1.42;;
65182;SDS011;51771;51.068;-1.780;2023-04-29T05:44:41;2.90;;;1.23;;
65182;SDS011;51771;51.068;-1.780;2023-04-29T05:47:06;5.23;;;1.90;;
65182;SDS011;51771;51.068;-1.780;2023-04-29T05:49:32;3.30;;;1.33;;
65182;SDS011;51771;51.068;-1.780;2023-04-29T05:51:57;4.25;;;1.77;;
65182;SDS011;51771;51.068;-1.780;2023-04-29T05:54:22;3.33;;;1.50;;
65182;SDS011;51771;51.068;-1.780;2023-04-29T05:56:47;3.67;;;1.60;;
65182;SDS011;51771;51.068;-1.780;2023-04-29T05:59:12;2.87;;;1.20;;
65182;SDS011;51771;51.068;-1.780;2023-04-29T06:01:38;4.20;;;1.40;;
65182;SDS011;51771;51.068;-1.780;2023-04-29T06:04:03;4.40;;;1.90;;
65182;SDS011;51771;51.068;-1.780;2023-04-29T06:06:28;3.88;;;1.98;;
65182;SDS011;51771;51.068;-1.780;2023-04-29T06:08:53;3.70;;;1.50;;
65182;SDS011;51771;51.068;-1.780;2023-04-29T06:11:19;4.70;;;1.87;;
65182;SDS011;51771;51.068;-1.780;2023-04-29T06:13:44;5.38;;;1.77;;
65182;SDS011;51771;51.068;-1.780;2023-04-29T06:16:10;4.55;;;2.28;;
65182;SDS011;51771;51.068;-1.780;2023-04-29T06:18:36;5.10;;;1.70;;
65182;SDS011;51771;51.068;-1.780;2023-04-29T06:21:02;4.13;;;1.90;;
65182;SDS011;51771;51.068;-1.780;2023-04-29T06:23:27;4.22;;;1.38;;
65182;SDS011;51771;51.068;-1.780;2023-04-29T06:25:52;4.80;;;2.37;;
65182;SDS011;51771;51.068;-1.780;2023-04-29T06:28:17;4.20;;;1.63;;
65182;SDS011;51771;51.068;-1.780;2023-04-29T06:30:43;5.70;;;2.00;;
65182;SDS011;51771;51.068;-1.780;2023-04-29T06:33:09;3.03;;;1.50;;
65182;SDS011;51771;51.068;-1.780;2023-04-29T06:35:37;4.35;;;1.73;;
65182;SDS011;51771;51.068;-1.780;2023-04-29T06:38:03;4.05;;;1.98;;
65182;SDS011;51771;51.068;-1.780;2023-04-29T06:40:28;5.25;;;1.92;;
65182;SDS011;51771;51.068;-1.780;2023-04-29T06:42:53;3.55;;;1.70;;
65182;SDS011;51771;51.068;-1.780;2023-04-29T06:45:19;4.57;;;1.40;;
65182;SDS011;51771;51.068;-1.780;2023-04-29T06:47:44;4.63;;;1.77;;
65182;SDS011;51771;51.068;-1.780;2023-04-29T06:50:10;2.45;;;1.42;;
65182;SDS011;51771;51.068;-1.780;2023-04-29T06:52:35;3.73;;;1.67;;
65182;SDS011;51771;51.068;-1.780;2023-04-29T06:55:01;4.72;;;2.05;;
65182;SDS011;51771;51.068;-1.780;2023-04-29T06:57:26;3.97;;;1.67;;
65182;SDS011;51771;51.068;-1.780;2023-04-29T06:59:52;3.70;;;1.20;;
65182;SDS011;51771;51.068;-1.780;2023-04-29T07:02:17;3.47;;;1.87;;
65182;SDS011;51771;51.068;-1.780;2023-04-29T07:04:42;4.70;;;2.33;;
65182;SDS011;51771;51.068;-1.780;2023-04-29T07:07:07;3.92;;;1.77;;
65182;SDS011;51771;51.068;-1.780;2023-04-29T07:09:33;6.82;;;2.25;;
65182;SDS011;51771;51.068;-1.780;2023-04-29T07:11:58;5.57;;;2.33;;
65182;SDS011;51771;51.068;-1.780;2023-04-29T07:14:23;6.53;;;2.57;;
65182;SDS011;51771;51.068;-1.780;2023-04-29T07:16:52;5.75;;;2.83;;
65182;SDS011;51771;51.068;-1.780;2023-04-29T07:19:17;5.13;;;2.10;;
65182;SDS011;51771;51.068;-1.780;2023-04-29T07:21:42;6.33;;;2.90;;
65182;SDS011;51771;51.068;-1.780;2023-04-29T07:24:07;5.07;;;1.90;;
65182;SDS011;51771;51.068;-1.780;2023-04-29T07:26:33;6.27;;;2.67;;
65182;SDS011;51771;51.068;-1.780;2023-04-29T07:28:58;6.82;;;2.58;;
65182;SDS011;51771;51.068;-1.780;2023-04-29T07:31:23;6.90;;;2.80;;
65182;SDS011;51771;51.068;-1.780;2023-04-29T07:33:49;5.67;;;2.37;;
65182;SDS011;51771;51.068;-1.780;2023-04-29T07:36:14;9.68;;;2.40;;
65182;SDS011;51771;51.068;-1.780;2023-04-29T07:38:39;7.32;;;2.72;;
65182;SDS011;51771;51.068;-1.780;2023-04-29T07:41:05;9.70;;;3.25;;
65182;SDS011;51771;51.068;-1.780;2023-04-29T07:43:31;7.85;;;2.90;;
65182;SDS011;51771;51.068;-1.780;2023-04-29T07:45:56;6.93;;;3.10;;
65182;SDS011;51771;51.068;-1.780;2023-04-29T07:48:21;7.40;;;3.10;;
65182;SDS011;51771;51.068;-1.780;2023-04-29T07:50:47;8.27;;;3.03;;
65182;SDS011;51771;51.068;-1.780;2023-04-29T07:53:12;10.13;;;3.80;;
65182;SDS011;51771;51.068;-1.780;2023-04-29T07:55:39;9.52;;;3.78;;
65182;SDS011;51771;51.068;-1.780;2023-04-29T07:58:04;7.45;;;3.40;;
65182;SDS011;51771;51.068;-1.780;2023-04-29T08:00:30;8.63;;;3.92;;
65182;SDS011;51771;51.068;-1.780;2023-04-29T08:02:55;6.97;;;3.30;;
65182;SDS011;51771;51.068;-1.780;2023-04-29T08:05:21;7.95;;;3.67;;
65182;SDS011;51771;51.068;-1.780;2023-04-29T08:07:47;9.15;;;3.85;;
65182;SDS011;51771;51.068;-1.780;2023-04-29T08:10:13;7.63;;;3.53;;
65182;SDS011;51771;51.068;-1.780;2023-04-29T08:12:38;7.45;;;3.30;;
65182;SDS011;51771;51.068;-1.780;2023-04-29T08:15:03;8.68;;;4.18;;
65182;SDS011;51771;51.068;-1.780;2023-04-29T08:17:29;9.38;;;4.63;;
65182;SDS011;51771;51.068;-1.780;2023-04-29T08:19:54;8.85;;;3.58;;
65182;SDS011;51771;51.068;-1.780;2023-04-29T08:22:19;9.65;;;4.22;;
65182;SDS011;51771;51.068;-1.780;2023-04-29T08:24:45;8.55;;;4.18;;
65182;SDS011;51771;51.068;-1.780;2023-04-29T08:27:10;8.93;;;3.85;;
65182;SDS011;51771;51.068;-1.780;2023-04-29T08:29:35;8.82;;;4.00;;
65182;SDS011;51771;51.068;-1.780;2023-04-29T08:32:01;12.70;;;5.78;;
65182;SDS011;51771;51.068;-1.780;2023-04-29T08:34:26;12.27;;;5.28;;
65182;SDS011;51771;51.068;-1.780;2023-04-29T08:36:52;14.60;;;5.10;;
65182;SDS011;51771;51.068;-1.780;2023-04-29T08:39:17;12.18;;;5.85;;
65182;SDS011;51771;51.068;-1.780;2023-04-29T08:41:42;11.90;;;5.10;;
65182;SDS011;51771;51.068;-1.780;2023-04-29T08:44:15;10.55;;;5.10;;
65182;SDS011;51771;51.068;-1.780;2023-04-29T08:46:41;14.30;;;5.28;;
65182;SDS011;51771;51.068;-1.780;2023-04-29T08:49:07;12.38;;;5.22;;
65182;SDS011;51771;51.068;-1.780;2023-04-29T08:51:33;10.95;;;5.10;;
65182;SDS011;51771;51.068;-1.780;2023-04-29T08:53:59;13.27;;;5.93;;
65182;SDS011;51771;51.068;-1.780;2023-04-29T08:56:24;14.82;;;6.68;;
65182;SDS011;51771;51.068;-1.780;2023-04-29T08:58:51;13.20;;;6.60;;
65182;SDS011;51771;51.068;-1.780;2023-04-29T09:01:22;15.95;;;6.88;;
65182;SDS011;51771;51.068;-1.780;2023-04-29T09:03:53;11.52;;;5.07;;
65182;SDS011;51771;51.068;-1.780;2023-04-29T09:06:20;11.10;;;5.30;;
65182;SDS011;51771;51.068;-1.780;2023-04-29T09:08:46;11.98;;;4.78;;
65182;SDS011;51771;51.068;-1.780;2023-04-29T09:11:11;11.70;;;5.68;;
65182;SDS011;51771;51.068;-1.780;2023-04-29T09:13:40;12.50;;;5.68;;
65182;SDS011;51771;51.068;-1.780;2023-04-29T09:16:11;12.70;;;6.65;;
65182;SDS011;51771;51.068;-1.780;2023-04-29T09:24:01;11.65;;;4.97;;
65182;SDS011;51771;51.068;-1.780;2023-04-29T09:26:26;14.07;;;5.97;;
65182;SDS011;51771;51.068;-1.780;2023-04-29T09:29:11;12.80;;;5.40;;
65182;SDS011;51771;51.068;-1.780;2023-04-29T09:31:42;14.88;;;5.90;;
65182;SDS011;51771;51.068;-1.780;2023-04-29T09:34:07;14.48;;;6.88;;
65182;SDS011;51771;51.068;-1.780;2023-04-29T09:36:49;13.57;;;6.13;;
65182;SDS011;51771;51.068;-1.780;2023-04-29T09:39:18;12.18;;;6.10;;
65182;SDS011;51771;51.068;-1.780;2023-04-29T09:44:18;13.23;;;6.63;;
65182;SDS011;51771;51.068;-1.780;2023-04-29T09:46:53;12.50;;;5.90;;
65182;SDS011;51771;51.068;-1.780;2023-04-29T09:49:26;11.52;;;5.72;;
65182;SDS011;51771;51.068;-1.780;2023-04-29T09:51:52;12.60;;;6.03;;
65182;SDS011;51771;51.068;-1.780;2023-04-29T09:54:21;14.55;;;6.90;;
65182;SDS011;51771;51.068;-1.780;2023-04-29T09:56:47;11.48;;;6.35;;
65182;SDS011;51771;51.068;-1.780;2023-04-29T09:59:13;11.95;;;6.60;;
65182;SDS011;51771;51.068;-1.780;2023-04-29T10:01:38;14.35;;;6.93;;
65182;SDS011;51771;51.068;-1.780;2023-04-29T10:04:03;12.75;;;6.90;;
65182;SDS011;51771;51.068;-1.780;2023-04-29T10:06:30;12.30;;;5.88;;
65182;SDS011;51771;51.068;-1.780;2023-04-29T10:08:55;11.57;;;5.93;;
65182;SDS011;51771;51.068;-1.780;2023-04-29T10:11:21;11.15;;;5.68;;
65182;SDS011;51771;51.068;-1.780;2023-04-29T10:13:46;13.38;;;6.38;;
65182;SDS011;51771;51.068;-1.780;2023-04-29T10:16:28;10.75;;;5.78;;
65182;SDS011;51771;51.068;-1.780;2023-04-29T10:18:54;11.98;;;6.78;;
65182;SDS011;51771;51.068;-1.780;2023-04-29T10:21:27;13.80;;;6.53;;
65182;SDS011;51771;51.068;-1.780;2023-04-29T10:23:53;12.63;;;5.90;;
65182;SDS011;51771;51.068;-1.780;2023-04-29T10:26:20;10.77;;;5.57;;
65182;SDS011;51771;51.068;-1.780;2023-04-29T10:28:46;10.40;;;5.35;;
65182;SDS011;51771;51.068;-1.780;2023-04-29T10:31:11;11.10;;;5.85;;
65182;SDS011;51771;51.068;-1.780;2023-04-29T10:33:39;8.57;;;5.03;;
65182;SDS011;51771;51.068;-1.780;2023-04-29T10:36:04;12.48;;;6.38;;
65182;SDS011;51771;51.068;-1.780;2023-04-29T10:38:32;10.10;;;5.40;;
65182;SDS011;51771;51.068;-1.780;2023-04-29T10:40:58;8.95;;;5.20;;
65182;SDS011;51771;51.068;-1.780;2023-04-29T10:43:26;10.15;;;5.50;;
65182;SDS011;51771;51.068;-1.780;2023-04-29T10:48:35;10.35;;;5.00;;
65182;SDS011;51771;51.068;-1.780;2023-04-29T10:51:01;10.55;;;5.55;;
65182;SDS011;51771;51.068;-1.780;2023-04-29T10:53:26;10.40;;;5.00;;
65182;SDS011;51771;51.068;-1.780;2023-04-29T10:55:53;10.73;;;5.07;;
65182;SDS011;51771;51.068;-1.780;2023-04-29T10:58:36;9.88;;;4.95;;
65182;SDS011;51771;51.068;-1.780;2023-04-29T11:01:02;9.40;;;5.07;;
65182;SDS011;51771;51.068;-1.780;2023-04-29T11:03:46;11.00;;;5.93;;
65182;SDS011;51771;51.068;-1.780;2023-04-29T11:06:12;10.35;;;4.88;;
65182;SDS011;51771;51.068;-1.780;2023-04-29T11:08:38;11.68;;;5.82;;
65182;SDS011;51771;51.068;-1.780;2023-04-29T11:11:07;11.05;;;5.25;;
65182;SDS011;51771;51.068;-1.780;2023-04-29T11:13:36;10.27;;;5.25;;
65182;SDS011;51771;51.068;-1.780;2023-04-29T11:16:09;9.65;;;4.93;;
65182;SDS011;51771;51.068;-1.780;2023-04-29T11:18:35;10.00;;;5.45;;
65182;SDS011;51771;51.068;-1.780;2023-04-29T11:23:35;9.82;;;4.90;;
65182;SDS011;51771;51.068;-1.780;2023-04-29T11:26:00;9.70;;;4.82;;
65182;SDS011;51771;51.068;-1.780;2023-04-29T11:28:26;10.50;;;4.93;;
65182;SDS011;51771;51.068;-1.780;2023-04-29T11:30:52;8.90;;;4.63;;
65182;SDS011;51771;51.068;-1.780;2023-04-29T11:33:18;9.00;;;4.72;;
65182;SDS011;51771;51.068;-1.780;2023-04-29T11:35:43;9.13;;;5.03;;
65182;SDS011;51771;51.068;-1.780;2023-04-29T11:38:09;9.73;;;5.40;;
65182;SDS011;51771;51.068;-1.780;2023-04-29T11:40:34;10.40;;;5.00;;
65182;SDS011;51771;51.068;-1.780;2023-04-29T11:42:59;9.10;;;4.60;;
65182;SDS011;51771;51.068;-1.780;2023-04-29T11:45:25;9.40;;;5.00;;
65182;SDS011;51771;51.068;-1.780;2023-04-29T11:47:50;10.07;;;5.55;;
65182;SDS011;51771;51.068;-1.780;2023-04-29T11:50:16;11.43;;;5.60;;
65182;SDS011;51771;51.068;-1.780;2023-04-29T11:55:11;10.20;;;4.93;;
65182;SDS011;51771;51.068;-1.780;2023-04-29T11:57:37;9.45;;;4.63;;
65182;SDS011;51771;51.068;-1.780;2023-04-29T12:00:03;10.57;;;5.15;;
65182;SDS011;51771;51.068;-1.780;2023-04-29T12:02:31;9.98;;;5.25;;
65182;SDS011;51771;51.068;-1.780;2023-04-29T12:04:58;9.63;;;4.32;;
65182;SDS011;51771;51.068;-1.780;2023-04-29T12:07:24;9.82;;;5.07;;
65182;SDS011;51771;51.068;-1.780;2023-04-29T12:09:50;9.53;;;4.33;;
65182;SDS011;51771;51.068;-1.780;2023-04-29T12:12:15;5.90;;;2.67;;
65182;SDS011;51771;51.068;-1.780;2023-04-29T12:14:41;7.25;;;3.00;;
65182;SDS011;51771;51.068;-1.780;2023-04-29T12:17:06;8.80;;;3.83;;
65182;SDS011;51771;51.068;-1.780;2023-04-29T12:19:32;6.38;;;3.03;;
65182;SDS011;51771;51.068;-1.780;2023-04-29T12:22:01;7.97;;;2.85;;
65182;SDS011;51771;51.068;-1.780;2023-04-29T12:24:27;7.68;;;3.22;;
65182;SDS011;51771;51.068;-1.780;2023-04-29T12:26:53;6.78;;;3.53;;
65182;SDS011;51771;51.068;-1.780;2023-04-29T12:29:22;10.27;;;3.50;;
65182;SDS011;51771;51.068;-1.780;2023-04-29T12:31:48;9.93;;;4.20;;
65182;SDS011;51771;51.068;-1.780;2023-04-29T12:34:13;7.57;;;3.55;;
65182;SDS011;51771;51.068;-1.780;2023-04-29T12:36:40;7.47;;;3.00;;
65182;SDS011;51771;51.068;-1.780;2023-04-29T12:39:06;7.43;;;3.72;;
65182;SDS011;51771;51.068;-1.780;2023-04-29T12:41:37;5.85;;;2.55;;
65182;SDS011;51771;51.068;-1.780;2023-04-29T12:44:03;6.82;;;3.17;;
65182;SDS011;51771;51.068;-1.780;2023-04-29T12:46:32;6.07;;;3.20;;
65182;SDS011;51771;51.068;-1.780;2023-04-29T12:48:58;9.43;;;3.85;;
65182;SDS011;51771;51.068;-1.780;2023-04-29T12:51:26;6.68;;;3.17;;
65182;SDS011;51771;51.068;-1.780;2023-04-29T12:53:51;7.17;;;3.00;;
65182;SDS011;51771;51.068;-1.780;2023-04-29T12:56:16;7.20;;;3.63;;
65182;SDS011;51771;51.068;-1.780;2023-04-29T12:58:42;8.70;;;3.28;;
65182;SDS011;51771;51.068;-1.780;2023-04-29T13:01:07;8.97;;;2.97;;
65182;SDS011;51771;51.068;-1.780;2023-04-29T13:03:32;6.67;;;2.83;;
65182;SDS011;51771;51.068;-1.780;2023-04-29T13:05:58;5.95;;;2.50;;
65182;SDS011;51771;51.068;-1.780;2023-04-29T13:08:23;7.20;;;3.08;;
65182;SDS011;51771;51.068;-1.780;2023-04-29T13:10:48;6.55;;;2.97;;
65182;SDS011;51771;51.068;-1.780;2023-04-29T13:13:14;6.15;;;2.92;;
65182;SDS011;51771;51.068;-1.780;2023-04-29T13:15:40;7.88;;;3.45;;
65182;SDS011;51771;51.068;-1.780;2023-04-29T13:18:05;6.73;;;3.40;;
65182;SDS011;51771;51.068;-1.780;2023-04-29T13:20:30;8.25;;;3.25;;
65182;SDS011;51771;51.068;-1.780;2023-04-29T13:22:57;5.07;;;2.92;;
65182;SDS011;51771;51.068;-1.780;2023-04-29T13:25:22;8.77;;;3.50;;
65182;SDS011;51771;51.068;-1.780;2023-04-29T13:27:47;6.55;;;2.80;;
65182;SDS011;51771;51.068;-1.780;2023-04-29T13:30:13;6.25;;;2.85;;
65182;SDS011;51771;51.068;-1.780;2023-04-29T13:32:38;6.55;;;2.70;;
65182;SDS011;51771;51.068;-1.780;2023-04-29T13:35:05;6.43;;;2.72;;
65182;SDS011;51771;51.068;-1.780;2023-04-29T13:37:30;6.82;;;2.78;;
65182;SDS011;51771;51.068;-1.780;2023-04-29T13:39:56;6.18;;;2.72;;
65182;SDS011;51771;51.068;-1.780;2023-04-29T13:42:21;5.80;;;2.85;;
65182;SDS011;51771;51.068;-1.780;2023-04-29T13:44:46;5.40;;;2.87;;
65182;SDS011;51771;51.068;-1.780;2023-04-29T13:47:13;8.10;;;3.28;;
65182;SDS011;51771;51.068;-1.780;2023-04-29T13:49:39;6.83;;;3.23;;
65182;SDS011;51771;51.068;-1.780;2023-04-29T13:52:04;8.07;;;3.10;;
65182;SDS011;51771;51.068;-1.780;2023-04-29T13:54:29;5.85;;;2.70;;
65182;SDS011;51771;51.068;-1.780;2023-04-29T13:56:54;5.60;;;2.33;;
65182;SDS011;51771;51.068;-1.780;2023-04-29T13:59:20;5.60;;;2.27;;
65182;SDS011;51771;51.068;-1.780;2023-04-29T14:01:45;5.00;;;2.27;;
65182;SDS011;51771;51.068;-1.780;2023-04-29T14:04:10;6.15;;;2.70;;
65182;SDS011;51771;51.068;-1.780;2023-04-29T14:06:36;7.17;;;3.03;;
65182;SDS011;51771;51.068;-1.780;2023-04-29T14:09:01;5.53;;;2.42;;
65182;SDS011;51771;51.068;-1.780;2023-04-29T14:11:27;5.20;;;2.40;;
65182;SDS011;51771;51.068;-1.780;2023-04-29T14:13:52;4.87;;;2.27;;
65182;SDS011;51771;51.068;-1.780;2023-04-29T14:16:18;6.77;;;3.13;;
65182;SDS011;51771;51.068;-1.780;2023-04-29T14:18:43;6.83;;;3.43;;
65182;SDS011;51771;51.068;-1.780;2023-04-29T14:21:08;6.00;;;2.93;;
65182;SDS011;51771;51.068;-1.780;2023-04-29T14:23:34;8.55;;;3.63;;
65182;SDS011;51771;51.068;-1.780;2023-04-29T14:26:00;6.67;;;3.27;;
65182;SDS011;51771;51.068;-1.780;2023-04-29T14:28:25;7.72;;;2.95;;
65182;SDS011;51771;51.068;-1.780;2023-04-29T14:30:50;7.63;;;3.57;;
65182;SDS011;51771;51.068;-1.780;2023-04-29T14:33:15;5.83;;;3.00;;
65182;SDS011;51771;51.068;-1.780;2023-04-29T14:35:41;7.90;;;4.27;;
65182;SDS011;51771;51.068;-1.780;2023-04-29T14:38:06;9.53;;;4.90;;
65182;SDS011;51771;51.068;-1.780;2023-04-29T14:40:31;10.87;;;5.53;;
65182;SDS011;51771;51.068;-1.780;2023-04-29T14:42:56;10.10;;;4.55;;
65182;SDS011;51771;51.068;-1.780;2023-04-29T14:45:24;10.83;;;5.40;;
65182;SDS011;51771;51.068;-1.780;2023-04-29T14:47:49;8.88;;;4.32;;
65182;SDS011;51771;51.068;-1.780;2023-04-29T14:50:15;11.07;;;4.70;;
65182;SDS011;51771;51.068;-1.780;2023-04-29T14:52:40;10.98;;;5.50;;